sensor_id;sensor_type;location;lat;lon;timestamp;temperature;humidity
40374;DHT22;26079;45.958;12.492;2023-08-08T00:01:30;15.80;99.90
40374;DHT22;26079;45.958;12.492;2023-08-08T00:03:56;15.80;99.90
40374;DHT22;26079;45.958;12.492;2023-08-08T00:06:21;15.90;99.90
40374;DHT22;26079;45.958;12.492;2023-08-08T00:08:47;15.90;99.90
40374;DHT22;26079;45.958;12.492;2023-08-08T00:11:13;15.90;99.90
40374;DHT22;26079;45.958;12.492;2023-08-08T00:13:38;15.90;99.90
40374;DHT22;26079;45.958;12.492;2023-08-08T00:16:04;15.80;99.90
40374;DHT22;26079;45.958;12.492;2023-08-08T00:18:30;15.80;99.90
40374;DHT22;26079;45.958;12.492;2023-08-08T00:20:56;15.70;99.90
40374;DHT22;26079;45.958;12.492;2023-08-08T00:23:22;15.80;99.90
40374;DHT22;26079;45.958;12.492;2023-08-08T00:25:47;15.80;99.90
40374;DHT22;26079;45.958;12.492;2023-08-08T00:28:16;15.80;99.90
40374;DHT22;26079;45.958;12.492;2023-08-08T00:30:43;15.70;99.90
40374;DHT22;26079;45.958;12.492;2023-08-08T00:33:09;15.70;99.90
40374;DHT22;26079;45.958;12.492;2023-08-08T00:35:34;15.70;99.90
40374;DHT22;26079;45.958;12.492;2023-08-08T00:38:00;15.80;99.90
40374;DHT22;26079;45.958;12.492;2023-08-08T00:40:26;15.80;99.90
40374;DHT22;26079;45.958;12.492;2023-08-08T00:42:51;15.80;99.90
40374;DHT22;26079;45.958;12.492;2023-08-08T00:45:17;15.90;99.90
40374;DHT22;26079;45.958;12.492;2023-08-08T00:47:43;16.00;99.80
40374;DHT22;26079;45.958;12.492;2023-08-08T00:50:09;16.00;99.20
40374;DHT22;26079;45.958;12.492;2023-08-08T00:52:36;16.00;99.90
40374;DHT22;26079;45.958;12.492;2023-08-08T00:55:03;16.10;99.90
40374;DHT22;26079;45.958;12.492;2023-08-08T00:57:29;16.10;99.90
40374;DHT22;26079;45.958;12.492;2023-08-08T00:59:54;16.10;99.90
40374;DHT22;26079;45.958;12.492;2023-08-08T01:02:20;16.00;99.90
40374;DHT22;26079;45.958;12.492;2023-08-08T01:04:46;16.00;99.90
40374;DHT22;26079;45.958;12.492;2023-08-08T01:09:41;16.00;99.90
40374;DHT22;26079;45.958;12.492;2023-08-08T01:12:11;16.00;99.90
40374;DHT22;26079;45.958;12.492;2023-08-08T01:14:38;15.90;99.90
40374;DHT22;26079;45.958;12.492;2023-08-08T01:17:06;15.90;99.90
40374;DHT22;26079;45.958;12.492;2023-08-08T01:19:32;15.90;99.90
40374;DHT22;26079;45.958;12.492;2023-08-08T01:22:05;15.90;99.90
40374;DHT22;26079;45.958;12.492;2023-08-08T01:24:32;15.90;99.90
40374;DHT22;26079;45.958;12.492;2023-08-08T01:27:02;15.90;99.90
40374;DHT22;26079;45.958;12.492;2023-08-08T01:29:29;15.80;99.90
40374;DHT22;26079;45.958;12.492;2023-08-08T01:31:55;15.80;99.90
40374;DHT22;26079;45.958;12.492;2023-08-08T01:34:21;15.70;99.90
40374;DHT22;26079;45.958;12.492;2023-08-08T01:36:56;15.60;99.90
40374;DHT22;26079;45.958;12.492;2023-08-08T01:39:26;15.50;99.90
40374;DHT22;26079;45.958;12.492;2023-08-08T01:41:53;15.50;99.90
40374;DHT22;26079;45.958;12.492;2023-08-08T01:44:20;15.50;99.90
40374;DHT22;26079;45.958;12.492;2023-08-08T01:46:46;15.40;99.90
40374;DHT22;26079;45.958;12.492;2023-08-08T01:49:12;15.30;99.90
40374;DHT22;26079;45.958;12.492;2023-08-08T01:51:38;15.20;99.90
40374;DHT22;26079;45.958;12.492;2023-08-08T01:54:04;15.10;99.90
40374;DHT22;26079;45.958;12.492;2023-08-08T01:56:29;15.10;99.90
40374;DHT22;26079;45.958;12.492;2023-08-08T01:58:55;15.00;99.90
40374;DHT22;26079;45.958;12.492;2023-08-08T02:01:21;15.00;99.90
40374;DHT22;26079;45.958;12.492;2023-08-08T02:03:47;15.00;99.90
40374;DHT22;26079;45.958;12.492;2023-08-08T02:06:13;15.00;99.90
40374;DHT22;26079;45.958;12.492;2023-08-08T02:08:38;15.00;99.90
40374;DHT22;26079;45.958;12.492;2023-08-08T02:11:04;14.90;99.90
40374;DHT22;26079;45.958;12.492;2023-08-08T02:13:30;14.90;99.90
40374;DHT22;26079;45.958;12.492;2023-08-08T02:15:56;15.00;99.90
40374;DHT22;26079;45.958;12.492;2023-08-08T02:18:21;15.00;99.90
40374;DHT22;26079;45.958;12.492;2023-08-08T02:20:47;15.00;99.90
40374;DHT22;26079;45.958;12.492;2023-08-08T02:23:13;14.90;99.90
40374;DHT22;26079;45.958;12.492;2023-08-08T02:25:38;14.90;99.90
40374;DHT22;26079;45.958;12.492;2023-08-08T02:28:04;14.90;99.90
40374;DHT22;26079;45.958;12.492;2023-08-08T02:30:30;14.90;99.90
40374;DHT22;26079;45.958;12.492;2023-08-08T02:32:56;14.90;99.90
40374;DHT22;26079;45.958;12.492;2023-08-08T02:35:21;14.80;99.90
40374;DHT22;26079;45.958;12.492;2023-08-08T02:37:47;14.80;99.90
40374;DHT22;26079;45.958;12.492;2023-08-08T02:40:13;14.70;99.90
40374;DHT22;26079;45.958;12.492;2023-08-08T02:42:39;14.70;99.90
40374;DHT22;26079;45.958;12.492;2023-08-08T02:45:05;14.70;99.90
40374;DHT22;26079;45.958;12.492;2023-08-08T02:47:31;14.70;99.90
40374;DHT22;26079;45.958;12.492;2023-08-08T02:49:56;14.70;99.90
40374;DHT22;26079;45.958;12.492;2023-08-08T02:52:22;14.80;99.90
40374;DHT22;26079;45.958;12.492;2023-08-08T02:54:48;14.80;99.90
40374;DHT22;26079;45.958;12.492;2023-08-08T02:57:13;14.70;99.90
40374;DHT22;26079;45.958;12.492;2023-08-08T02:59:39;14.70;99.90
40374;DHT22;26079;45.958;12.492;2023-08-08T03:02:05;14.60;99.90
40374;DHT22;26079;45.958;12.492;2023-08-08T03:04:31;14.60;99.90
40374;DHT22;26079;45.958;12.492;2023-08-08T03:06:57;14.60;99.90
40374;DHT22;26079;45.958;12.492;2023-08-08T03:09:22;14.60;99.90
40374;DHT22;26079;45.958;12.492;2023-08-08T03:11:48;14.60;99.90
40374;DHT22;26079;45.958;12.492;2023-08-08T03:14:14;14.60;99.90
40374;DHT22;26079;45.958;12.492;2023-08-08T03:16:39;14.70;99.90
40374;DHT22;26079;45.958;12.492;2023-08-08T03:19:05;14.70;99.90
40374;DHT22;26079;45.958;12.492;2023-08-08T03:21:31;14.70;99.90
40374;DHT22;26079;45.958;12.492;2023-08-08T03:23:57;14.60;99.90
40374;DHT22;26079;45.958;12.492;2023-08-08T03:26:23;14.70;99.90
40374;DHT22;26079;45.958;12.492;2023-08-08T03:28:49;14.70;99.90
40374;DHT22;26079;45.958;12.492;2023-08-08T03:31:16;14.80;99.90
40374;DHT22;26079;45.958;12.492;2023-08-08T03:33:43;14.80;99.90
40374;DHT22;26079;45.958;12.492;2023-08-08T03:36:09;14.80;99.90
40374;DHT22;26079;45.958;12.492;2023-08-08T03:38:35;14.80;99.90
40374;DHT22;26079;45.958;12.492;2023-08-08T03:41:03;14.80;99.90
40374;DHT22;26079;45.958;12.492;2023-08-08T03:43:29;14.70;99.90
40374;DHT22;26079;45.958;12.492;2023-08-08T03:45:55;14.70;99.90
40374;DHT22;26079;45.958;12.492;2023-08-08T03:48:20;14.50;99.90
40374;DHT22;26079;45.958;12.492;2023-08-08T03:50:46;14.40;99.90
40374;DHT22;26079;45.958;12.492;2023-08-08T03:53:12;14.30;99.90
40374;DHT22;26079;45.958;12.492;2023-08-08T03:55:38;14.30;99.90
40374;DHT22;26079;45.958;12.492;2023-08-08T03:58:04;14.30;99.90
40374;DHT22;26079;45.958;12.492;2023-08-08T04:00:31;14.30;99.90
40374;DHT22;26079;45.958;12.492;2023-08-08T04:02:56;14.30;99.90
40374;DHT22;26079;45.958;12.492;2023-08-08T04:05:22;14.40;99.90
40374;DHT22;26079;45.958;12.492;2023-08-08T04:07:48;14.40;99.90
40374;DHT22;26079;45.958;12.492;2023-08-08T04:10:14;14.50;99.90
40374;DHT22;26079;45.958;12.492;2023-08-08T04:12:40;14.50;99.90
40374;DHT22;26079;45.958;12.492;2023-08-08T04:15:06;14.50;99.90
40374;DHT22;26079;45.958;12.492;2023-08-08T04:17:31;14.50;99.90
40374;DHT22;26079;45.958;12.492;2023-08-08T04:19:57;14.50;99.90
40374;DHT22;26079;45.958;12.492;2023-08-08T04:22:23;14.50;99.90
40374;DHT22;26079;45.958;12.492;2023-08-08T04:24:49;14.60;99.90
40374;DHT22;26079;45.958;12.492;2023-08-08T04:27:14;14.60;99.90
40374;DHT22;26079;45.958;12.492;2023-08-08T04:29:40;14.70;99.90
40374;DHT22;26079;45.958;12.492;2023-08-08T04:32:06;14.60;99.90
40374;DHT22;26079;45.958;12.492;2023-08-08T04:34:32;14.70;99.90
40374;DHT22;26079;45.958;12.492;2023-08-08T04:36:57;14.70;99.90
40374;DHT22;26079;45.958;12.492;2023-08-08T04:39:23;14.70;99.90
40374;DHT22;26079;45.958;12.492;2023-08-08T04:41:49;14.70;99.90
40374;DHT22;26079;45.958;12.492;2023-08-08T04:44:14;14.80;99.90
40374;DHT22;26079;45.958;12.492;2023-08-08T04:46:40;14.90;99.90
40374;DHT22;26079;45.958;12.492;2023-08-08T04:49:05;15.00;99.90
40374;DHT22;26079;45.958;12.492;2023-08-08T04:51:31;14.90;99.90
40374;DHT22;26079;45.958;12.492;2023-08-08T04:53:57;14.80;99.90
40374;DHT22;26079;45.958;12.492;2023-08-08T04:56:22;14.70;99.90
40374;DHT22;26079;45.958;12.492;2023-08-08T04:58:48;14.80;99.70
40374;DHT22;26079;45.958;12.492;2023-08-08T05:01:14;15.20;99.30
40374;DHT22;26079;45.958;12.492;2023-08-08T05:03:41;15.40;98.30
40374;DHT22;26079;45.958;12.492;2023-08-08T05:06:07;15.60;98.10
40374;DHT22;26079;45.958;12.492;2023-08-08T05:08:32;15.80;98.20
40374;DHT22;26079;45.958;12.492;2023-08-08T05:10:58;15.90;97.10
40374;DHT22;26079;45.958;12.492;2023-08-08T05:13:24;15.90;95.40
40374;DHT22;26079;45.958;12.492;2023-08-08T05:15:49;15.90;95.40
40374;DHT22;26079;45.958;12.492;2023-08-08T05:18:15;15.90;95.90
40374;DHT22;26079;45.958;12.492;2023-08-08T05:20:41;15.80;95.40
40374;DHT22;26079;45.958;12.492;2023-08-08T05:23:06;15.80;96.30
40374;DHT22;26079;45.958;12.492;2023-08-08T05:25:32;15.80;96.10
40374;DHT22;26079;45.958;12.492;2023-08-08T05:27:58;15.80;97.00
40374;DHT22;26079;45.958;12.492;2023-08-08T05:30:23;15.90;97.20
40374;DHT22;26079;45.958;12.492;2023-08-08T05:32:49;16.00;98.40
40374;DHT22;26079;45.958;12.492;2023-08-08T05:35:15;16.20;98.30
40374;DHT22;26079;45.958;12.492;2023-08-08T05:37:40;16.30;98.10
40374;DHT22;26079;45.958;12.492;2023-08-08T05:40:07;16.40;97.40
40374;DHT22;26079;45.958;12.492;2023-08-08T05:42:33;16.80;95.80
40374;DHT22;26079;45.958;12.492;2023-08-08T05:44:59;17.20;92.90
40374;DHT22;26079;45.958;12.492;2023-08-08T05:47:24;17.10;92.90
40374;DHT22;26079;45.958;12.492;2023-08-08T05:49:50;18.00;92.50
40374;DHT22;26079;45.958;12.492;2023-08-08T05:52:16;19.40;88.30
40374;DHT22;26079;45.958;12.492;2023-08-08T05:54:42;20.70;83.60
40374;DHT22;26079;45.958;12.492;2023-08-08T05:57:07;21.80;78.30
40374;DHT22;26079;45.958;12.492;2023-08-08T05:59:33;22.50;76.20
40374;DHT22;26079;45.958;12.492;2023-08-08T06:01:59;23.00;74.20
40374;DHT22;26079;45.958;12.492;2023-08-08T06:04:25;23.30;73.60
40374;DHT22;26079;45.958;12.492;2023-08-08T06:06:50;23.80;72.80
40374;DHT22;26079;45.958;12.492;2023-08-08T06:09:16;24.40;70.80
40374;DHT22;26079;45.958;12.492;2023-08-08T06:11:42;24.50;70.10
40374;DHT22;26079;45.958;12.492;2023-08-08T06:14:09;25.20;69.10
40374;DHT22;26079;45.958;12.492;2023-08-08T06:16:35;25.20;70.00
40374;DHT22;26079;45.958;12.492;2023-08-08T06:19:00;24.00;71.30
40374;DHT22;26079;45.958;12.492;2023-08-08T06:21:26;23.40;73.50
40374;DHT22;26079;45.958;12.492;2023-08-08T06:23:52;23.90;72.10
40374;DHT22;26079;45.958;12.492;2023-08-08T06:26:21;24.30;73.90
40374;DHT22;26079;45.958;12.492;2023-08-08T06:28:47;25.10;71.70
40374;DHT22;26079;45.958;12.492;2023-08-08T06:31:13;25.70;70.50
40374;DHT22;26079;45.958;12.492;2023-08-08T06:33:39;26.20;67.60
40374;DHT22;26079;45.958;12.492;2023-08-08T06:36:05;26.30;66.90
40374;DHT22;26079;45.958;12.492;2023-08-08T06:38:31;25.10;69.10
40374;DHT22;26079;45.958;12.492;2023-08-08T06:41:01;24.10;71.70
40374;DHT22;26079;45.958;12.492;2023-08-08T06:43:27;23.60;73.20
40374;DHT22;26079;45.958;12.492;2023-08-08T06:45:53;22.80;75.50
40374;DHT22;26079;45.958;12.492;2023-08-08T06:48:19;22.10;77.00
40374;DHT22;26079;45.958;12.492;2023-08-08T06:50:45;21.60;78.70
40374;DHT22;26079;45.958;12.492;2023-08-08T06:53:10;21.40;80.40
40374;DHT22;26079;45.958;12.492;2023-08-08T06:55:36;21.10;79.70
40374;DHT22;26079;45.958;12.492;2023-08-08T06:58:02;21.00;81.80
40374;DHT22;26079;45.958;12.492;2023-08-08T07:00:28;21.10;83.40
40374;DHT22;26079;45.958;12.492;2023-08-08T07:02:54;21.20;82.20
40374;DHT22;26079;45.958;12.492;2023-08-08T07:05:20;21.20;81.90
40374;DHT22;26079;45.958;12.492;2023-08-08T07:07:51;21.30;82.40
40374;DHT22;26079;45.958;12.492;2023-08-08T07:10:18;21.40;79.40
40374;DHT22;26079;45.958;12.492;2023-08-08T07:12:44;21.50;78.70
40374;DHT22;26079;45.958;12.492;2023-08-08T07:15:10;21.80;76.70
40374;DHT22;26079;45.958;12.492;2023-08-08T07:17:37;22.10;76.20
40374;DHT22;26079;45.958;12.492;2023-08-08T07:20:03;22.10;73.10
40374;DHT22;26079;45.958;12.492;2023-08-08T07:22:31;22.20;69.70
40374;DHT22;26079;45.958;12.492;2023-08-08T07:24:58;22.20;68.90
40374;DHT22;26079;45.958;12.492;2023-08-08T07:27:23;22.30;69.30
40374;DHT22;26079;45.958;12.492;2023-08-08T07:29:49;22.40;72.80
40374;DHT22;26079;45.958;12.492;2023-08-08T07:32:15;22.50;72.20
40374;DHT22;26079;45.958;12.492;2023-08-08T07:34:41;22.50;65.00
40374;DHT22;26079;45.958;12.492;2023-08-08T07:37:06;22.50;64.40
40374;DHT22;26079;45.958;12.492;2023-08-08T07:39:32;22.70;63.00
40374;DHT22;26079;45.958;12.492;2023-08-08T07:41:58;23.00;65.10
40374;DHT22;26079;45.958;12.492;2023-08-08T07:44:23;23.10;64.70
40374;DHT22;26079;45.958;12.492;2023-08-08T07:46:49;23.20;65.10
40374;DHT22;26079;45.958;12.492;2023-08-08T07:49:15;23.30;63.00
40374;DHT22;26079;45.958;12.492;2023-08-08T07:51:41;23.30;62.00
40374;DHT22;26079;45.958;12.492;2023-08-08T07:54:06;23.20;62.20
40374;DHT22;26079;45.958;12.492;2023-08-08T07:56:34;23.20;63.20
40374;DHT22;26079;45.958;12.492;2023-08-08T07:59:00;23.30;63.30
40374;DHT22;26079;45.958;12.492;2023-08-08T08:01:27;23.30;63.80
40374;DHT22;26079;45.958;12.492;2023-08-08T08:03:53;23.30;65.00
40374;DHT22;26079;45.958;12.492;2023-08-08T08:06:19;23.00;63.20
40374;DHT22;26079;45.958;12.492;2023-08-08T08:08:45;23.00;63.40
40374;DHT22;26079;45.958;12.492;2023-08-08T08:11:10;22.90;63.60
40374;DHT22;26079;45.958;12.492;2023-08-08T08:13:38;22.90;64.70
40374;DHT22;26079;45.958;12.492;2023-08-08T08:16:04;22.80;65.90
40374;DHT22;26079;45.958;12.492;2023-08-08T08:18:30;22.80;66.70
40374;DHT22;26079;45.958;12.492;2023-08-08T08:20:56;22.90;67.10
40374;DHT22;26079;45.958;12.492;2023-08-08T08:23:22;23.20;68.60
40374;DHT22;26079;45.958;12.492;2023-08-08T08:25:47;23.20;67.90
40374;DHT22;26079;45.958;12.492;2023-08-08T08:28:14;23.30;67.00
40374;DHT22;26079;45.958;12.492;2023-08-08T08:30:40;23.10;66.40
40374;DHT22;26079;45.958;12.492;2023-08-08T08:33:06;23.00;65.90
40374;DHT22;26079;45.958;12.492;2023-08-08T08:35:35;23.10;66.70
40374;DHT22;26079;45.958;12.492;2023-08-08T08:38:02;22.90;67.40
40374;DHT22;26079;45.958;12.492;2023-08-08T08:40:28;22.80;67.40
40374;DHT22;26079;45.958;12.492;2023-08-08T08:42:55;22.80;66.70
40374;DHT22;26079;45.958;12.492;2023-08-08T08:45:22;22.80;67.50
40374;DHT22;26079;45.958;12.492;2023-08-08T08:47:49;22.70;67.60
40374;DHT22;26079;45.958;12.492;2023-08-08T08:50:18;22.70;68.50
40374;DHT22;26079;45.958;12.492;2023-08-08T08:52:44;22.60;70.00
40374;DHT22;26079;45.958;12.492;2023-08-08T08:55:10;22.60;67.70
40374;DHT22;26079;45.958;12.492;2023-08-08T08:57:36;22.60;67.90
40374;DHT22;26079;45.958;12.492;2023-08-08T09:00:03;22.50;68.30
40374;DHT22;26079;45.958;12.492;2023-08-08T09:02:31;22.60;68.30
40374;DHT22;26079;45.958;12.492;2023-08-08T09:04:58;22.70;68.40
40374;DHT22;26079;45.958;12.492;2023-08-08T09:07:28;22.90;64.40
40374;DHT22;26079;45.958;12.492;2023-08-08T09:09:55;22.90;66.00
40374;DHT22;26079;45.958;12.492;2023-08-08T09:12:21;23.10;65.50
40374;DHT22;26079;45.958;12.492;2023-08-08T09:14:54;23.30;65.30
40374;DHT22;26079;45.958;12.492;2023-08-08T09:17:22;23.50;64.40
40374;DHT22;26079;45.958;12.492;2023-08-08T09:19:50;23.60;66.00
40374;DHT22;26079;45.958;12.492;2023-08-08T09:22:15;23.60;66.60
40374;DHT22;26079;45.958;12.492;2023-08-08T09:24:41;23.50;62.70
40374;DHT22;26079;45.958;12.492;2023-08-08T09:27:08;23.30;62.50
40374;DHT22;26079;45.958;12.492;2023-08-08T09:29:35;23.20;64.70
40374;DHT22;26079;45.958;12.492;2023-08-08T09:32:07;23.10;63.30
40374;DHT22;26079;45.958;12.492;2023-08-08T09:34:33;23.10;65.50
40374;DHT22;26079;45.958;12.492;2023-08-08T09:36:59;23.20;66.90
40374;DHT22;26079;45.958;12.492;2023-08-08T09:39:26;23.30;64.40
40374;DHT22;26079;45.958;12.492;2023-08-08T09:41:51;23.30;63.80
40374;DHT22;26079;45.958;12.492;2023-08-08T09:44:17;23.40;64.30
40374;DHT22;26079;45.958;12.492;2023-08-08T09:46:43;23.50;63.80
40374;DHT22;26079;45.958;12.492;2023-08-08T09:49:10;23.70;62.70
40374;DHT22;26079;45.958;12.492;2023-08-08T09:51:37;23.80;64.30
40374;DHT22;26079;45.958;12.492;2023-08-08T09:54:04;23.90;63.50
40374;DHT22;26079;45.958;12.492;2023-08-08T09:56:33;24.00;64.70
40374;DHT22;26079;45.958;12.492;2023-08-08T09:59:01;23.90;62.70
40374;DHT22;26079;45.958;12.492;2023-08-08T10:01:27;23.80;64.50
40374;DHT22;26079;45.958;12.492;2023-08-08T10:03:52;23.80;64.50
40374;DHT22;26079;45.958;12.492;2023-08-08T10:06:18;23.80;62.50
40374;DHT22;26079;45.958;12.492;2023-08-08T10:08:45;23.80;64.10
40374;DHT22;26079;45.958;12.492;2023-08-08T10:11:12;23.90;62.50
40374;DHT22;26079;45.958;12.492;2023-08-08T10:13:38;23.90;62.70
40374;DHT22;26079;45.958;12.492;2023-08-08T10:16:12;24.00;64.10
40374;DHT22;26079;45.958;12.492;2023-08-08T10:18:37;24.00;65.90
40374;DHT22;26079;45.958;12.492;2023-08-08T10:21:07;24.00;65.00
40374;DHT22;26079;45.958;12.492;2023-08-08T10:23:39;24.00;63.30
40374;DHT22;26079;45.958;12.492;2023-08-08T10:26:16;24.10;65.50
40374;DHT22;26079;45.958;12.492;2023-08-08T10:28:52;24.10;67.10
40374;DHT22;26079;45.958;12.492;2023-08-08T10:31:20;24.30;65.40
40374;DHT22;26079;45.958;12.492;2023-08-08T10:33:46;24.40;66.80
40374;DHT22;26079;45.958;12.492;2023-08-08T10:36:12;24.40;64.90
40374;DHT22;26079;45.958;12.492;2023-08-08T10:38:49;24.40;64.70
40374;DHT22;26079;45.958;12.492;2023-08-08T10:41:19;24.40;65.20
40374;DHT22;26079;45.958;12.492;2023-08-08T10:46:23;24.70;64.20
40374;DHT22;26079;45.958;12.492;2023-08-08T10:48:54;24.80;64.00
40374;DHT22;26079;45.958;12.492;2023-08-08T10:51:20;25.10;63.50
40374;DHT22;26079;45.958;12.492;2023-08-08T10:53:50;25.30;63.10
40374;DHT22;26079;45.958;12.492;2023-08-08T10:56:18;25.20;62.40
40374;DHT22;26079;45.958;12.492;2023-08-08T10:58:48;25.20;64.00
40374;DHT22;26079;45.958;12.492;2023-08-08T11:01:13;25.00;64.20
40374;DHT22;26079;45.958;12.492;2023-08-08T11:03:41;24.90;66.50
40374;DHT22;26079;45.958;12.492;2023-08-08T11:06:07;25.00;62.70
40374;DHT22;26079;45.958;12.492;2023-08-08T11:08:34;25.10;63.50
40374;DHT22;26079;45.958;12.492;2023-08-08T11:11:02;25.00;64.70
40374;DHT22;26079;45.958;12.492;2023-08-08T11:13:27;24.80;65.70
40374;DHT22;26079;45.958;12.492;2023-08-08T11:15:53;24.70;64.30
40374;DHT22;26079;45.958;12.492;2023-08-08T11:18:19;24.70;63.70
40374;DHT22;26079;45.958;12.492;2023-08-08T11:20:45;24.70;61.30
40374;DHT22;26079;45.958;12.492;2023-08-08T11:23:11;24.60;61.80
40374;DHT22;26079;45.958;12.492;2023-08-08T11:25:40;24.60;64.20
40374;DHT22;26079;45.958;12.492;2023-08-08T11:28:07;24.60;67.10
40374;DHT22;26079;45.958;12.492;2023-08-08T11:30:36;24.50;66.60
40374;DHT22;26079;45.958;12.492;2023-08-08T11:33:02;24.40;66.00
40374;DHT22;26079;45.958;12.492;2023-08-08T11:35:29;24.40;67.30
40374;DHT22;26079;45.958;12.492;2023-08-08T11:37:59;24.50;65.80
40374;DHT22;26079;45.958;12.492;2023-08-08T11:40:27;24.50;65.40
40374;DHT22;26079;45.958;12.492;2023-08-08T11:42:54;24.50;66.40
40374;DHT22;26079;45.958;12.492;2023-08-08T11:45:21;24.50;66.70
40374;DHT22;26079;45.958;12.492;2023-08-08T11:47:51;24.60;66.50
40374;DHT22;26079;45.958;12.492;2023-08-08T11:50:21;24.80;65.00
40374;DHT22;26079;45.958;12.492;2023-08-08T11:52:54;24.80;65.50
40374;DHT22;26079;45.958;12.492;2023-08-08T11:55:21;24.80;65.30
40374;DHT22;26079;45.958;12.492;2023-08-08T11:57:54;24.80;64.00
40374;DHT22;26079;45.958;12.492;2023-08-08T12:00:27;24.90;65.80
40374;DHT22;26079;45.958;12.492;2023-08-08T12:02:54;25.00;64.20
40374;DHT22;26079;45.958;12.492;2023-08-08T12:05:21;24.90;63.80
40374;DHT22;26079;45.958;12.492;2023-08-08T12:07:49;24.80;66.20
40374;DHT22;26079;45.958;12.492;2023-08-08T12:10:18;24.80;65.80
40374;DHT22;26079;45.958;12.492;2023-08-08T12:12:45;24.90;65.90
40374;DHT22;26079;45.958;12.492;2023-08-08T12:15:11;24.80;66.20
40374;DHT22;26079;45.958;12.492;2023-08-08T12:17:37;24.50;67.50
40374;DHT22;26079;45.958;12.492;2023-08-08T12:20:04;24.50;66.50
40374;DHT22;26079;45.958;12.492;2023-08-08T12:22:35;24.50;65.30
40374;DHT22;26079;45.958;12.492;2023-08-08T12:25:01;24.50;66.70
40374;DHT22;26079;45.958;12.492;2023-08-08T12:27:26;24.40;70.10
40374;DHT22;26079;45.958;12.492;2023-08-08T12:29:52;24.30;69.60
40374;DHT22;26079;45.958;12.492;2023-08-08T12:32:21;24.30;70.30
40374;DHT22;26079;45.958;12.492;2023-08-08T12:34:50;24.50;69.10
40374;DHT22;26079;45.958;12.492;2023-08-08T12:37:16;24.70;65.20
40374;DHT22;26079;45.958;12.492;2023-08-08T12:39:43;24.80;66.70
40374;DHT22;26079;45.958;12.492;2023-08-08T12:42:08;24.80;68.60
40374;DHT22;26079;45.958;12.492;2023-08-08T12:44:34;24.80;68.90
40374;DHT22;26079;45.958;12.492;2023-08-08T12:47:00;24.80;70.90
40374;DHT22;26079;45.958;12.492;2023-08-08T12:49:25;24.80;71.20
40374;DHT22;26079;45.958;12.492;2023-08-08T12:51:52;24.90;70.90
40374;DHT22;26079;45.958;12.492;2023-08-08T12:54:19;25.10;73.80
40374;DHT22;26079;45.958;12.492;2023-08-08T12:56:45;25.40;71.70
40374;DHT22;26079;45.958;12.492;2023-08-08T12:59:11;25.70;69.60
40374;DHT22;26079;45.958;12.492;2023-08-08T13:01:36;25.70;69.80
40374;DHT22;26079;45.958;12.492;2023-08-08T13:04:02;25.60;70.40
40374;DHT22;26079;45.958;12.492;2023-08-08T13:06:29;25.50;70.20
40374;DHT22;26079;45.958;12.492;2023-08-08T13:08:55;25.40;70.30
40374;DHT22;26079;45.958;12.492;2023-08-08T13:11:21;25.40;71.40
40374;DHT22;26079;45.958;12.492;2023-08-08T13:13:47;25.50;71.80
40374;DHT22;26079;45.958;12.492;2023-08-08T13:16:13;25.70;70.50
40374;DHT22;26079;45.958;12.492;2023-08-08T13:18:39;25.90;69.80
40374;DHT22;26079;45.958;12.492;2023-08-08T13:21:05;25.90;70.00
40374;DHT22;26079;45.958;12.492;2023-08-08T13:23:32;25.80;69.00
40374;DHT22;26079;45.958;12.492;2023-08-08T13:25:58;25.70;69.70
40374;DHT22;26079;45.958;12.492;2023-08-08T13:28:23;25.70;70.10
40374;DHT22;26079;45.958;12.492;2023-08-08T13:30:49;25.60;70.50
40374;DHT22;26079;45.958;12.492;2023-08-08T13:33:15;25.40;70.40
40374;DHT22;26079;45.958;12.492;2023-08-08T13:35:41;25.10;70.50
40374;DHT22;26079;45.958;12.492;2023-08-08T13:38:06;24.90;73.00
40374;DHT22;26079;45.958;12.492;2023-08-08T13:40:33;24.70;72.90
40374;DHT22;26079;45.958;12.492;2023-08-08T13:42:59;24.60;75.10
40374;DHT22;26079;45.958;12.492;2023-08-08T13:45:25;24.60;73.60
40374;DHT22;26079;45.958;12.492;2023-08-08T13:47:50;24.90;72.10
40374;DHT22;26079;45.958;12.492;2023-08-08T13:50:16;25.20;70.80
40374;DHT22;26079;45.958;12.492;2023-08-08T13:52:42;25.30;70.00
40374;DHT22;26079;45.958;12.492;2023-08-08T13:55:09;25.50;71.50
40374;DHT22;26079;45.958;12.492;2023-08-08T13:57:35;25.80;70.60
40374;DHT22;26079;45.958;12.492;2023-08-08T14:00:02;25.90;69.10
40374;DHT22;26079;45.958;12.492;2023-08-08T14:02:28;25.90;69.40
40374;DHT22;26079;45.958;12.492;2023-08-08T14:04:55;26.00;69.50
40374;DHT22;26079;45.958;12.492;2023-08-08T14:07:21;26.10;69.80
40374;DHT22;26079;45.958;12.492;2023-08-08T14:09:47;26.00;68.40
40374;DHT22;26079;45.958;12.492;2023-08-08T14:12:13;26.00;69.00
40374;DHT22;26079;45.958;12.492;2023-08-08T14:14:38;26.00;68.50
40374;DHT22;26079;45.958;12.492;2023-08-08T14:17:04;25.90;68.50
40374;DHT22;26079;45.958;12.492;2023-08-08T14:19:30;25.90;69.80
40374;DHT22;26079;45.958;12.492;2023-08-08T14:21:56;26.00;69.50
40374;DHT22;26079;45.958;12.492;2023-08-08T14:24:21;26.10;68.40
40374;DHT22;26079;45.958;12.492;2023-08-08T14:26:47;26.20;69.40
40374;DHT22;26079;45.958;12.492;2023-08-08T14:29:13;26.40;68.90
40374;DHT22;26079;45.958;12.492;2023-08-08T14:31:38;26.40;67.90
40374;DHT22;26079;45.958;12.492;2023-08-08T14:34:04;26.50;69.80
40374;DHT22;26079;45.958;12.492;2023-08-08T14:36:30;26.60;68.70
40374;DHT22;26079;45.958;12.492;2023-08-08T14:38:55;26.50;67.60
40374;DHT22;26079;45.958;12.492;2023-08-08T14:41:21;26.40;67.40
40374;DHT22;26079;45.958;12.492;2023-08-08T14:43:47;26.40;69.40
40374;DHT22;26079;45.958;12.492;2023-08-08T14:46:13;26.30;68.40
40374;DHT22;26079;45.958;12.492;2023-08-08T14:48:39;26.00;68.50
40374;DHT22;26079;45.958;12.492;2023-08-08T14:51:05;25.90;68.40
40374;DHT22;26079;45.958;12.492;2023-08-08T14:53:31;26.00;71.00
40374;DHT22;26079;45.958;12.492;2023-08-08T14:55:56;26.10;71.70
40374;DHT22;26079;45.958;12.492;2023-08-08T14:58:22;26.00;70.00
40374;DHT22;26079;45.958;12.492;2023-08-08T15:00:48;26.10;69.60
40374;DHT22;26079;45.958;12.492;2023-08-08T15:03:14;25.90;69.30
40374;DHT22;26079;45.958;12.492;2023-08-08T15:05:40;25.90;71.40
40374;DHT22;26079;45.958;12.492;2023-08-08T15:08:06;25.90;72.60
40374;DHT22;26079;45.958;12.492;2023-08-08T15:10:32;25.90;73.30
40374;DHT22;26079;45.958;12.492;2023-08-08T15:12:58;26.10;71.30
40374;DHT22;26079;45.958;12.492;2023-08-08T15:15:24;26.10;70.50